<?xml version='1.0' encoding='UTF-8'?><gpx version="1.1" creator="JPX - https://github.com/jenetics/jpx" xmlns="http://www.topografix.com/GPX/1/1"><trk><trkseg><trkpt lat="43.9986452" lon="8.0014328"><ele>748.0</ele><time>2026-04-08T13:28:22.795Z</time></trkpt><trkpt lat="43.9985886" lon="8.0013824"><ele>748.0</ele><time>2026-04-08T13:28:30.796Z</time></trkpt><trkpt lat="43.998535" lon="8.0014363"><ele>748.0</ele><time>2026-04-08T13:28:40.794Z</time></trkpt><trkpt lat="43.9985159" lon="8.001524"><ele>748.0</ele><time>2026-04-08T13:28:47.795Z</time></trkpt><trkpt lat="43.9984474" lon="8.0015459"><ele>748.0</ele><time>2026-04-08T13:28:54.795Z</time></trkpt><trkpt lat="43.9983719" lon="8.0015438"><ele>748.0</ele><time>2026-04-08T13:28:59.794Z</time></trkpt><trkpt lat="43.9983045" lon="8.0015295"><ele>748.0</ele><time>2026-04-08T13:29:05.794Z</time></trkpt><trkpt lat="43.9982364" lon="8.0015384"><ele>749.4285714285714</ele><time>2026-04-08T13:29:11.794Z</time></trkpt><trkpt lat="43.9981853" lon="8.0016036"><ele>750.8571428571429</ele><time>2026-04-08T13:29:17.808Z</time></trkpt><trkpt lat="43.9981394" lon="8.0016801"><ele>752.2857142857143</ele><time>2026-04-08T13:29:23.856Z</time></trkpt><trkpt lat="43.9980857" lon="8.0017282"><ele>753.7142857142858</ele><time>2026-04-08T13:29:31.795Z</time></trkpt><trkpt lat="43.9980132" lon="8.0017523"><ele>755.1428571428571</ele><time>2026-04-08T13:29:38.861Z</time></trkpt><trkpt lat="43.9979505" lon="8.0017671"><ele>756.5714285714287</ele><time>2026-04-08T13:29:44.796Z</time></trkpt><trkpt lat="43.9978869" lon="8.0017829"><ele>758.0</ele><time>2026-04-08T13:29:50.88Z</time></trkpt><trkpt lat="43.9978168" lon="8.0017735"><ele>758.0000000000001</ele><time>2026-04-08T13:29:57.795Z</time></trkpt><trkpt lat="43.9977493" lon="8.0017679"><ele>758.0</ele><time>2026-04-08T13:30:04.566Z</time></trkpt><trkpt lat="43.9976857" lon="8.0018175"><ele>758.0</ele><time>2026-04-08T13:30:12.855Z</time></trkpt><trkpt lat="43.9976406" lon="8.0019007"><ele>758.0</ele><time>2026-04-08T13:30:21.795Z</time></trkpt><trkpt lat="43.9976105" lon="8.0019891"><ele>758.0</ele><time>2026-04-08T13:30:27.848Z</time></trkpt><trkpt lat="43.9976024" lon="8.0020805"><ele>758.0000000000001</ele><time>2026-04-08T13:30:35.855Z</time></trkpt><trkpt lat="43.9975947" lon="8.0021704"><ele>758.0</ele><time>2026-04-08T13:30:45.866Z</time></trkpt><trkpt lat="43.9975666" lon="8.0022522"><ele>758.0000000000001</ele><time>2026-04-08T13:30:52.855Z</time></trkpt><trkpt lat="43.9975182" lon="8.0023204"><ele>758.0</ele><time>2026-04-08T13:30:58.842Z</time></trkpt><trkpt lat="43.9974798" lon="8.0023997"><ele>758.0</ele><time>2026-04-08T13:31:03.795Z</time></trkpt><trkpt lat="43.9974235" lon="8.0024582"><ele>758.0</ele><time>2026-04-08T13:31:17.796Z</time></trkpt><trkpt lat="43.997444" lon="8.0025449"><ele>758.0</ele><time>2026-04-08T13:31:42.795Z</time></trkpt><trkpt lat="43.9974317" lon="8.002632"><ele>758.0000000000001</ele><time>2026-04-08T13:31:50.796Z</time></trkpt><trkpt lat="43.9974295" lon="8.0027217"><ele>758.0</ele><time>2026-04-08T13:31:59.794Z</time></trkpt><trkpt lat="43.9974405" lon="8.0028117"><ele>757.4285714285714</ele><time>2026-04-08T13:32:07.853Z</time></trkpt><trkpt lat="43.9974117" lon="8.002902"><ele>756.8571428571429</ele><time>2026-04-08T13:32:17.853Z</time></trkpt><trkpt lat="43.9974317" lon="8.0029912"><ele>756.2857142857142</ele><time>2026-04-08T13:32:26.864Z</time></trkpt><trkpt lat="43.9974083" lon="8.0030812"><ele>755.7142857142858</ele><time>2026-04-08T13:32:36.875Z</time></trkpt><trkpt lat="43.9973861" lon="8.0031707"><ele>755.1428571428571</ele><time>2026-04-08T13:32:48.812Z</time></trkpt><trkpt lat="43.997371" lon="8.0032669"><ele>754.5714285714286</ele><time>2026-04-08T13:32:55.796Z</time></trkpt><trkpt lat="43.9973391" lon="8.0033549"><ele>754.0</ele><time>2026-04-08T13:33:04.825Z</time></trkpt><trkpt lat="43.9973348" lon="8.003448"><ele>753.4285714285713</ele><time>2026-04-08T13:33:12.795Z</time></trkpt><trkpt lat="43.9973419" lon="8.0035374"><ele>752.8571428571429</ele><time>2026-04-08T13:33:22.793Z</time></trkpt><trkpt lat="43.9973474" lon="8.0036263"><ele>752.2857142857142</ele><time>2026-04-08T13:33:33.793Z</time></trkpt><trkpt lat="43.997344" lon="8.0037158"><ele>751.7142857142857</ele><time>2026-04-08T13:33:42.793Z</time></trkpt><trkpt lat="43.9973294" lon="8.0038091"><ele>751.1428571428571</ele><time>2026-04-08T13:33:50.793Z</time></trkpt><trkpt lat="43.9973194" lon="8.0038988"><ele>750.5714285714286</ele><time>2026-04-08T13:33:56.799Z</time></trkpt><trkpt lat="43.9973253" lon="8.0039934"><ele>750.0</ele><time>2026-04-08T13:34:04.717Z</time></trkpt><trkpt lat="43.9973165" lon="8.0040834"><ele>748.1428571428572</ele><time>2026-04-08T13:34:12.802Z</time></trkpt><trkpt lat="43.9973303" lon="8.0041728"><ele>746.2857142857142</ele><time>2026-04-08T13:34:22.795Z</time></trkpt><trkpt lat="43.9973315" lon="8.0042619"><ele>744.4285714285714</ele><time>2026-04-08T13:34:35.82Z</time></trkpt><trkpt lat="43.9973235" lon="8.0043591"><ele>742.5714285714287</ele><time>2026-04-08T13:34:48.793Z</time></trkpt><trkpt lat="43.997318" lon="8.004449"><ele>740.7142857142858</ele><time>2026-04-08T13:34:58.794Z</time></trkpt><trkpt lat="43.9973218" lon="8.0045427"><ele>738.8571428571429</ele><time>2026-04-08T13:35:08.793Z</time></trkpt><trkpt lat="43.9973487" lon="8.0046315"><ele>737.0</ele><time>2026-04-08T13:35:16.759Z</time></trkpt><trkpt lat="43.9973556" lon="8.0047222"><ele>737.0000000000001</ele><time>2026-04-08T13:35:24.794Z</time></trkpt><trkpt lat="43.997301" lon="8.0047686"><ele>737.0</ele><time>2026-04-08T13:35:31.726Z</time></trkpt><trkpt lat="43.9972358" lon="8.0047636"><ele>737.0</ele><time>2026-04-08T13:35:38.793Z</time></trkpt><trkpt lat="43.997169" lon="8.0047715"><ele>737.0</ele><time>2026-04-08T13:35:51.866Z</time></trkpt><trkpt lat="43.9971037" lon="8.0048091"><ele>737.0</ele><time>2026-04-08T13:36:03.794Z</time></trkpt><trkpt lat="43.9970427" lon="8.0048332"><ele>737.0000000000001</ele><time>2026-04-08T13:36:09.794Z</time></trkpt><trkpt lat="43.9969832" lon="8.0048807"><ele>737.0</ele><time>2026-04-08T13:36:21.794Z</time></trkpt><trkpt lat="43.9969526" lon="8.0049683"><ele>735.2857142857143</ele><time>2026-04-08T13:36:27.794Z</time></trkpt><trkpt lat="43.9969478" lon="8.005058"><ele>733.5714285714286</ele><time>2026-04-08T13:36:38.532Z</time></trkpt><trkpt lat="43.9969973" lon="8.0051277"><ele>731.8571428571429</ele><time>2026-04-08T13:36:43.794Z</time></trkpt><trkpt lat="43.9970441" lon="8.0052071"><ele>730.1428571428571</ele><time>2026-04-08T13:36:50.794Z</time></trkpt><trkpt lat="43.9970899" lon="8.0052684"><ele>728.4285714285714</ele><time>2026-04-08T13:36:56.705Z</time></trkpt><trkpt lat="43.9971576" lon="8.0053164"><ele>726.7142857142858</ele><time>2026-04-08T13:37:03.794Z</time></trkpt><trkpt lat="43.9972225" lon="8.0053492"><ele>725.0</ele><time>2026-04-08T13:37:09.694Z</time></trkpt><trkpt lat="43.9972602" lon="8.0054317"><ele>725.0</ele><time>2026-04-08T13:37:15.794Z</time></trkpt><trkpt lat="43.9972889" lon="8.0055174"><ele>725.0</ele><time>2026-04-08T13:37:29.794Z</time></trkpt><trkpt lat="43.9973024" lon="8.0056046"><ele>725.0</ele><time>2026-04-08T13:37:38.793Z</time></trkpt><trkpt lat="43.9972739" lon="8.0056827"><ele>725.0</ele><time>2026-04-08T13:37:47.793Z</time></trkpt><trkpt lat="43.9972184" lon="8.0057415"><ele>725.0</ele><time>2026-04-08T13:37:56.794Z</time></trkpt><trkpt lat="43.9971827" lon="8.0058235"><ele>725.0</ele><time>2026-04-08T13:38:05.794Z</time></trkpt><trkpt lat="43.9971933" lon="8.0059104"><ele>725.0</ele><time>2026-04-08T13:38:13.793Z</time></trkpt><trkpt lat="43.9972219" lon="8.0059946"><ele>723.8571428571429</ele><time>2026-04-08T13:38:31.794Z</time></trkpt><trkpt lat="43.997253" lon="8.0060766"><ele>722.7142857142858</ele><time>2026-04-08T13:38:38.794Z</time></trkpt><trkpt lat="43.997274" lon="8.0061708"><ele>721.5714285714286</ele><time>2026-04-08T13:38:47.815Z</time></trkpt><trkpt lat="43.9972807" lon="8.0062601"><ele>720.4285714285714</ele><time>2026-04-08T13:38:54.794Z</time></trkpt><trkpt lat="43.9972964" lon="8.0063466"><ele>719.2857142857142</ele><time>2026-04-08T13:39:02.793Z</time></trkpt><trkpt lat="43.997297" lon="8.0064399"><ele>718.1428571428571</ele><time>2026-04-08T13:39:11.794Z</time></trkpt><trkpt lat="43.997261" lon="8.0065123"><ele>717.0</ele><time>2026-04-08T13:39:19.793Z</time></trkpt><trkpt lat="43.9972108" lon="8.0065761"><ele>717.0</ele><time>2026-04-08T13:39:28.793Z</time></trkpt><trkpt lat="43.9971694" lon="8.0066439"><ele>717.0</ele><time>2026-04-08T13:39:36.708Z</time></trkpt><trkpt lat="43.9971247" lon="8.0067157"><ele>717.0</ele><time>2026-04-08T13:39:45.793Z</time></trkpt><trkpt lat="43.9970826" lon="8.00679"><ele>717.0</ele><time>2026-04-08T13:39:55.794Z</time></trkpt><trkpt lat="43.9970141" lon="8.0068283"><ele>717.0</ele><time>2026-04-08T13:40:04.793Z</time></trkpt><trkpt lat="43.9969441" lon="8.0068233"><ele>717.0</ele><time>2026-04-08T13:40:12.793Z</time></trkpt><trkpt lat="43.9968828" lon="8.0067755"><ele>717.0</ele><time>2026-04-08T13:40:20.792Z</time></trkpt><trkpt lat="43.9968274" lon="8.0067331"><ele>717.0</ele><time>2026-04-08T13:40:27.794Z</time></trkpt><trkpt lat="43.9967621" lon="8.006696"><ele>717.0</ele><time>2026-04-08T13:40:36.798Z</time></trkpt><trkpt lat="43.9966946" lon="8.0066611"><ele>717.0</ele><time>2026-04-08T13:40:45.794Z</time></trkpt><trkpt lat="43.9966259" lon="8.0066655"><ele>717.0</ele><time>2026-04-08T13:40:54.794Z</time></trkpt><trkpt lat="43.9965529" lon="8.0066682"><ele>717.0</ele><time>2026-04-08T13:41:05.792Z</time></trkpt><trkpt lat="43.9964909" lon="8.0066416"><ele>717.0</ele><time>2026-04-08T13:41:15.805Z</time></trkpt><trkpt lat="43.9964279" lon="8.006596"><ele>717.0</ele><time>2026-04-08T13:41:25.793Z</time></trkpt><trkpt lat="43.9963669" lon="8.0065612"><ele>715.4285714285714</ele><time>2026-04-08T13:41:32.794Z</time></trkpt><trkpt lat="43.99631" lon="8.0065217"><ele>713.8571428571429</ele><time>2026-04-08T13:41:38.707Z</time></trkpt><trkpt lat="43.9962696" lon="8.0064395"><ele>712.2857142857142</ele><time>2026-04-08T13:41:45.793Z</time></trkpt><trkpt lat="43.9962274" lon="8.0063578"><ele>710.7142857142858</ele><time>2026-04-08T13:41:52.799Z</time></trkpt><trkpt lat="43.9962057" lon="8.0062744"><ele>709.1428571428572</ele><time>2026-04-08T13:41:58.794Z</time></trkpt><trkpt lat="43.9961637" lon="8.0061998"><ele>707.5714285714286</ele><time>2026-04-08T13:42:05.792Z</time></trkpt><trkpt lat="43.9961074" lon="8.0061482"><ele>706.0</ele><time>2026-04-08T13:42:12.803Z</time></trkpt><trkpt lat="43.9960458" lon="8.0061123"><ele>706.0</ele><time>2026-04-08T13:42:19.802Z</time></trkpt><trkpt lat="43.9959767" lon="8.0060878"><ele>706.0</ele><time>2026-04-08T13:42:26.794Z</time></trkpt><trkpt lat="43.9959044" lon="8.006081"><ele>706.0</ele><time>2026-04-08T13:42:33.799Z</time></trkpt><trkpt lat="43.9958405" lon="8.0061202"><ele>706.0</ele><time>2026-04-08T13:42:40.741Z</time></trkpt><trkpt lat="43.9957696" lon="8.0061262"><ele>706.0</ele><time>2026-04-08T13:42:47.793Z</time></trkpt><trkpt lat="43.9957042" lon="8.0061347"><ele>706.0</ele><time>2026-04-08T13:42:54.758Z</time></trkpt><trkpt lat="43.9956362" lon="8.006144"><ele>706.0</ele><time>2026-04-08T13:43:01.792Z</time></trkpt><trkpt lat="43.9955707" lon="8.0061408"><ele>703.7142857142857</ele><time>2026-04-08T13:43:08.795Z</time></trkpt><trkpt lat="43.9955038" lon="8.0061227"><ele>701.4285714285714</ele><time>2026-04-08T13:43:16.793Z</time></trkpt><trkpt lat="43.9954382" lon="8.0061339"><ele>699.1428571428571</ele><time>2026-04-08T13:43:24.792Z</time></trkpt><trkpt lat="43.9953817" lon="8.0061886"><ele>696.8571428571429</ele><time>2026-04-08T13:43:31.723Z</time></trkpt><trkpt lat="43.9953274" lon="8.0062389"><ele>694.5714285714286</ele><time>2026-04-08T13:43:38.792Z</time></trkpt><trkpt lat="43.9952647" lon="8.0062652"><ele>692.2857142857143</ele><time>2026-04-08T13:43:45.793Z</time></trkpt><trkpt lat="43.9952034" lon="8.006291"><ele>690.0</ele><time>2026-04-08T13:43:52.82Z</time></trkpt><trkpt lat="43.9951681" lon="8.0063664"><ele>690.0</ele><time>2026-04-08T13:43:59.702Z</time></trkpt><trkpt lat="43.9951105" lon="8.0064127"><ele>690.0</ele><time>2026-04-08T13:44:08.807Z</time></trkpt><trkpt lat="43.9950425" lon="8.0064251"><ele>690.0</ele><time>2026-04-08T13:44:16.792Z</time></trkpt><trkpt lat="43.994972" lon="8.0064134"><ele>690.0</ele><time>2026-04-08T13:44:25.795Z</time></trkpt><trkpt lat="43.9949013" lon="8.0064122"><ele>690.0</ele><time>2026-04-08T13:44:33.793Z</time></trkpt><trkpt lat="43.9948333" lon="8.0064246"><ele>690.0</ele><time>2026-04-08T13:44:40.793Z</time></trkpt><trkpt lat="43.9947626" lon="8.0064534"><ele>690.0</ele><time>2026-04-08T13:44:46.805Z</time></trkpt><trkpt lat="43.9946997" lon="8.0064815"><ele>689.5714285714286</ele><time>2026-04-08T13:44:52.726Z</time></trkpt><trkpt lat="43.9946303" lon="8.0064913"><ele>689.1428571428571</ele><time>2026-04-08T13:44:59.793Z</time></trkpt><trkpt lat="43.9945707" lon="8.0065204"><ele>688.7142857142858</ele><time>2026-04-08T13:45:06.809Z</time></trkpt><trkpt lat="43.9945142" lon="8.0065614"><ele>688.2857142857142</ele><time>2026-04-08T13:45:12.793Z</time></trkpt><trkpt lat="43.9944594" lon="8.0066157"><ele>687.8571428571428</ele><time>2026-04-08T13:45:18.793Z</time></trkpt><trkpt lat="43.9943973" lon="8.0066405"><ele>687.4285714285714</ele><time>2026-04-08T13:45:24.801Z</time></trkpt><trkpt lat="43.9943286" lon="8.0066465"><ele>687.0</ele><time>2026-04-08T13:45:31.848Z</time></trkpt><trkpt lat="43.9942609" lon="8.0066343"><ele>687.0</ele><time>2026-04-08T13:45:38.792Z</time></trkpt><trkpt lat="43.994192" lon="8.0066214"><ele>687.0</ele><time>2026-04-08T13:45:44.793Z</time></trkpt><trkpt lat="43.9941243" lon="8.0065859"><ele>687.0</ele><time>2026-04-08T13:45:51.793Z</time></trkpt><trkpt lat="43.9940628" lon="8.006541"><ele>687.0</ele><time>2026-04-08T13:45:58.715Z</time></trkpt><trkpt lat="43.9940042" lon="8.0064933"><ele>687.0</ele><time>2026-04-08T13:46:05.792Z</time></trkpt><trkpt lat="43.9939343" lon="8.0064607"><ele>687.0</ele><time>2026-04-08T13:46:12.791Z</time></trkpt><trkpt lat="43.9938734" lon="8.0064227"><ele>687.0</ele><time>2026-04-08T13:46:19.792Z</time></trkpt><trkpt lat="43.9938076" lon="8.0064192"><ele>685.8571428571429</ele><time>2026-04-08T13:46:26.792Z</time></trkpt><trkpt lat="43.993743" lon="8.0064363"><ele>684.7142857142857</ele><time>2026-04-08T13:46:33.792Z</time></trkpt><trkpt lat="43.9936815" lon="8.0064616"><ele>683.5714285714286</ele><time>2026-04-08T13:46:41.792Z</time></trkpt><trkpt lat="43.9936905" lon="8.0065556"><ele>682.4285714285714</ele><time>2026-04-08T13:47:04.792Z</time></trkpt><trkpt lat="43.9936621" lon="8.0066376"><ele>681.2857142857142</ele><time>2026-04-08T13:47:10.792Z</time></trkpt><trkpt lat="43.9936337" lon="8.0067204"><ele>680.1428571428571</ele><time>2026-04-08T13:47:16.805Z</time></trkpt><trkpt lat="43.9935846" lon="8.0067825"><ele>679.0</ele><time>2026-04-08T13:47:23.791Z</time></trkpt><trkpt lat="43.9935211" lon="8.0068298"><ele>679.0</ele><time>2026-04-08T13:47:30.791Z</time></trkpt><trkpt lat="43.9934491" lon="8.0068208"><ele>679.0</ele><time>2026-04-08T13:47:37.792Z</time></trkpt><trkpt lat="43.9933792" lon="8.0068303"><ele>679.0</ele><time>2026-04-08T13:47:44.718Z</time></trkpt><trkpt lat="43.9933133" lon="8.0068114"><ele>679.0</ele><time>2026-04-08T13:47:51.791Z</time></trkpt><trkpt lat="43.9932448" lon="8.0068079"><ele>679.0</ele><time>2026-04-08T13:47:58.793Z</time></trkpt><trkpt lat="43.9931907" lon="8.0068654"><ele>679.0</ele><time>2026-04-08T13:48:05.792Z</time></trkpt><trkpt lat="43.9931365" lon="8.0069182"><ele>679.0</ele><time>2026-04-08T13:48:16.792Z</time></trkpt><trkpt lat="43.9931304" lon="8.0070193"><ele>679.4285714285714</ele><time>2026-04-08T13:48:25.774Z</time></trkpt><trkpt lat="43.9931247" lon="8.0071164"><ele>679.8571428571429</ele><time>2026-04-08T13:48:33.792Z</time></trkpt><trkpt lat="43.9931288" lon="8.0072131"><ele>680.2857142857142</ele><time>2026-04-08T13:48:41.811Z</time></trkpt><trkpt lat="43.9931269" lon="8.0073103"><ele>680.7142857142858</ele><time>2026-04-08T13:48:48.792Z</time></trkpt><trkpt lat="43.9931178" lon="8.0074116"><ele>681.1428571428571</ele><time>2026-04-08T13:48:55.792Z</time></trkpt><trkpt lat="43.9931045" lon="8.0074996"><ele>681.5714285714286</ele><time>2026-04-08T13:49:01.793Z</time></trkpt><trkpt lat="43.9931007" lon="8.0075954"><ele>682.0</ele><time>2026-04-08T13:49:08.791Z</time></trkpt><trkpt lat="43.9930908" lon="8.0076909"><ele>680.7142857142857</ele><time>2026-04-08T13:49:15.797Z</time></trkpt><trkpt lat="43.9930858" lon="8.0077854"><ele>679.4285714285714</ele><time>2026-04-08T13:49:23.536Z</time></trkpt><trkpt lat="43.9930951" lon="8.0078835"><ele>678.1428571428571</ele><time>2026-04-08T13:49:31.792Z</time></trkpt><trkpt lat="43.9931071" lon="8.007974"><ele>676.8571428571429</ele><time>2026-04-08T13:49:38.793Z</time></trkpt><trkpt lat="43.9931216" lon="8.0080678"><ele>675.5714285714286</ele><time>2026-04-08T13:49:46.792Z</time></trkpt><trkpt lat="43.9931408" lon="8.008155"><ele>674.2857142857143</ele><time>2026-04-08T13:49:54.793Z</time></trkpt><trkpt lat="43.9931681" lon="8.0082376"><ele>673.0</ele><time>2026-04-08T13:50:02.792Z</time></trkpt><trkpt lat="43.9931966" lon="8.008319"><ele>672.8571428571429</ele><time>2026-04-08T13:50:11.791Z</time></trkpt><trkpt lat="43.993224" lon="8.0084098"><ele>672.7142857142857</ele><time>2026-04-08T13:50:20.801Z</time></trkpt><trkpt lat="43.9932534" lon="8.0084979"><ele>672.5714285714286</ele><time>2026-04-08T13:50:29.793Z</time></trkpt><trkpt lat="43.9932759" lon="8.0085823"><ele>672.4285714285714</ele><time>2026-04-08T13:50:37.792Z</time></trkpt><trkpt lat="43.9933017" lon="8.008667"><ele>672.2857142857142</ele><time>2026-04-08T13:50:44.791Z</time></trkpt><trkpt lat="43.9933054" lon="8.0087602"><ele>672.1428571428571</ele><time>2026-04-08T13:50:50.805Z</time></trkpt><trkpt lat="43.9932904" lon="8.0088478"><ele>672.0</ele><time>2026-04-08T13:50:57.821Z</time></trkpt><trkpt lat="43.9932669" lon="8.0089374"><ele>672.0</ele><time>2026-04-08T13:51:04.791Z</time></trkpt><trkpt lat="43.9932306" lon="8.0090224"><ele>672.0</ele><time>2026-04-08T13:51:11.794Z</time></trkpt><trkpt lat="43.993202" lon="8.0091128"><ele>672.0</ele><time>2026-04-08T13:51:18.791Z</time></trkpt><trkpt lat="43.9931846" lon="8.0092077"><ele>672.0</ele><time>2026-04-08T13:51:25.792Z</time></trkpt><trkpt lat="43.9931858" lon="8.0092971"><ele>672.0</ele><time>2026-04-08T13:51:34.791Z</time></trkpt><trkpt lat="43.9931758" lon="8.0093894"><ele>672.0</ele><time>2026-04-08T13:51:40.871Z</time></trkpt><trkpt lat="43.993166" lon="8.0094785"><ele>672.0</ele><time>2026-04-08T13:51:46.863Z</time></trkpt><trkpt lat="43.993161" lon="8.0095814"><ele>671.8571428571429</ele><time>2026-04-08T13:51:54.843Z</time></trkpt><trkpt lat="43.9931596" lon="8.0096689"><ele>671.7142857142858</ele><time>2026-04-08T13:51:59.791Z</time></trkpt><trkpt lat="43.9931529" lon="8.009768"><ele>671.5714285714286</ele><time>2026-04-08T13:52:05.863Z</time></trkpt><trkpt lat="43.99314" lon="8.0098547"><ele>671.4285714285714</ele><time>2026-04-08T13:52:13.866Z</time></trkpt><trkpt lat="43.9931173" lon="8.0099409"><ele>671.2857142857143</ele><time>2026-04-08T13:52:21.856Z</time></trkpt><trkpt lat="43.9930959" lon="8.010024"><ele>671.1428571428571</ele><time>2026-04-08T13:52:27.848Z</time></trkpt><trkpt lat="43.9930603" lon="8.0101105"><ele>671.0</ele><time>2026-04-08T13:52:34.707Z</time></trkpt><trkpt lat="43.9930271" lon="8.0101992"><ele>670.2857142857142</ele><time>2026-04-08T13:52:42.91Z</time></trkpt><trkpt lat="43.9929966" lon="8.0102818"><ele>669.5714285714287</ele><time>2026-04-08T13:52:49.797Z</time></trkpt><trkpt lat="43.9929507" lon="8.010345"><ele>668.8571428571429</ele><time>2026-04-08T13:52:58.792Z</time></trkpt><trkpt lat="43.9928988" lon="8.0104131"><ele>668.1428571428571</ele><time>2026-04-08T13:53:05.79Z</time></trkpt><trkpt lat="43.9928476" lon="8.0104699"><ele>667.4285714285713</ele><time>2026-04-08T13:53:15.868Z</time></trkpt><trkpt lat="43.992811" lon="8.0105534"><ele>666.7142857142858</ele><time>2026-04-08T13:53:24.869Z</time></trkpt><trkpt lat="43.9927779" lon="8.0106416"><ele>666.0</ele><time>2026-04-08T13:53:30.848Z</time></trkpt><trkpt lat="43.9927436" lon="8.0107275"><ele>666.0</ele><time>2026-04-08T13:53:37.791Z</time></trkpt><trkpt lat="43.9927018" lon="8.0107993"><ele>666.0</ele><time>2026-04-08T13:53:45.737Z</time></trkpt><trkpt lat="43.9926879" lon="8.0108976"><ele>666.0</ele><time>2026-04-08T13:53:53.791Z</time></trkpt><trkpt lat="43.992695" lon="8.0109857"><ele>666.0</ele><time>2026-04-08T13:54:01.791Z</time></trkpt><trkpt lat="43.9927143" lon="8.0110847"><ele>666.0</ele><time>2026-04-08T13:54:08.79Z</time></trkpt><trkpt lat="43.9927497" lon="8.0111578"><ele>666.0</ele><time>2026-04-08T13:54:14.791Z</time></trkpt><trkpt lat="43.9927815" lon="8.0112535"><ele>666.0</ele><time>2026-04-08T13:54:26.848Z</time></trkpt><trkpt lat="43.9928363" lon="8.0113088"><ele>665.7142857142858</ele><time>2026-04-08T13:54:33.753Z</time></trkpt><trkpt lat="43.9928784" lon="8.0114112"><ele>665.4285714285713</ele><time>2026-04-08T13:54:39.791Z</time></trkpt><trkpt lat="43.9928484" lon="8.0114884"><ele>665.1428571428571</ele><time>2026-04-08T13:54:49.791Z</time></trkpt><trkpt lat="43.9927791" lon="8.0115024"><ele>664.8571428571429</ele><time>2026-04-08T13:54:57.793Z</time></trkpt><trkpt lat="43.9927103" lon="8.0114986"><ele>664.5714285714287</ele><time>2026-04-08T13:55:05.791Z</time></trkpt><trkpt lat="43.9926526" lon="8.0114569"><ele>664.2857142857142</ele><time>2026-04-08T13:55:12.793Z</time></trkpt><trkpt lat="43.9926011" lon="8.0113982"><ele>664.0</ele><time>2026-04-08T13:55:19.706Z</time></trkpt><trkpt lat="43.9925463" lon="8.0113425"><ele>664.8571428571428</ele><time>2026-04-08T13:55:24.791Z</time></trkpt><trkpt lat="43.9924866" lon="8.0112974"><ele>665.7142857142858</ele><time>2026-04-08T13:55:32.79Z</time></trkpt><trkpt lat="43.9924216" lon="8.0112567"><ele>666.5714285714286</ele><time>2026-04-08T13:55:41.79Z</time></trkpt><trkpt lat="43.992356" lon="8.0112744"><ele>667.4285714285713</ele><time>2026-04-08T13:55:50.79Z</time></trkpt><trkpt lat="43.9922985" lon="8.0113254"><ele>668.2857142857142</ele><time>2026-04-08T13:55:59.791Z</time></trkpt><trkpt lat="43.9922512" lon="8.0113927"><ele>669.1428571428571</ele><time>2026-04-08T13:56:07.857Z</time></trkpt><trkpt lat="43.9922042" lon="8.0114615"><ele>670.0</ele><time>2026-04-08T13:56:14.714Z</time></trkpt><trkpt lat="43.9921559" lon="8.0115206"><ele>669.9999999999999</ele><time>2026-04-08T13:56:21.792Z</time></trkpt><trkpt lat="43.992092" lon="8.0115295"><ele>670.0</ele><time>2026-04-08T13:56:28.805Z</time></trkpt><trkpt lat="43.99202" lon="8.0115353"><ele>670.0</ele><time>2026-04-08T13:56:35.791Z</time></trkpt><trkpt lat="43.991956" lon="8.0115709"><ele>670.0</ele><time>2026-04-08T13:56:43.79Z</time></trkpt><trkpt lat="43.99192" lon="8.011647"><ele>670.0</ele><time>2026-04-08T13:56:52.791Z</time></trkpt><trkpt lat="43.9918579" lon="8.0116781"><ele>669.9999999999999</ele><time>2026-04-08T13:57:02.791Z</time></trkpt><trkpt lat="43.9917949" lon="8.0117017"><ele>670.0</ele><time>2026-04-08T13:57:09.789Z</time></trkpt><trkpt lat="43.9917283" lon="8.011686"><ele>668.8571428571428</ele><time>2026-04-08T13:57:18.792Z</time></trkpt><trkpt lat="43.9916705" lon="8.011644"><ele>667.7142857142857</ele><time>2026-04-08T13:57:26.737Z</time></trkpt><trkpt lat="43.9916127" lon="8.0115971"><ele>666.5714285714286</ele><time>2026-04-08T13:57:34.786Z</time></trkpt><trkpt lat="43.9915649" lon="8.0115252"><ele>665.4285714285713</ele><time>2026-04-08T13:57:42.77Z</time></trkpt><trkpt lat="43.9915313" lon="8.0114434"><ele>664.2857142857142</ele><time>2026-04-08T13:57:50.791Z</time></trkpt><trkpt lat="43.9915019" lon="8.0113555"><ele>663.1428571428571</ele><time>2026-04-08T13:57:58.792Z</time></trkpt><trkpt lat="43.9914358" lon="8.0113395"><ele>662.0</ele><time>2026-04-08T13:58:05.791Z</time></trkpt><trkpt lat="43.9913795" lon="8.0113815"><ele>662.0</ele><time>2026-04-08T13:58:11.811Z</time></trkpt><trkpt lat="43.9913227" lon="8.0114347"><ele>662.0</ele><time>2026-04-08T13:58:18.791Z</time></trkpt><trkpt lat="43.9912676" lon="8.0114894"><ele>662.0</ele><time>2026-04-08T13:58:25.833Z</time></trkpt><trkpt lat="43.9912036" lon="8.0114866"><ele>662.0</ele><time>2026-04-08T13:58:32.789Z</time></trkpt><trkpt lat="43.991141" lon="8.0114472"><ele>662.0</ele><time>2026-04-08T13:58:40.791Z</time></trkpt><trkpt lat="43.991084" lon="8.011409"><ele>662.0</ele><time>2026-04-08T13:58:47.79Z</time></trkpt><trkpt lat="43.991026" lon="8.0114446"><ele>662.0</ele><time>2026-04-08T13:58:54.79Z</time></trkpt><trkpt lat="43.990995" lon="8.0115262"><ele>662.0</ele><time>2026-04-08T13:59:00.79Z</time></trkpt><trkpt lat="43.9909471" lon="8.0116027"><ele>662.0</ele><time>2026-04-08T13:59:07.791Z</time></trkpt><trkpt lat="43.9908963" lon="8.0116633"><ele>662.0</ele><time>2026-04-08T13:59:14.79Z</time></trkpt><trkpt lat="43.99084" lon="8.0117217"><ele>662.0</ele><time>2026-04-08T13:59:21.79Z</time></trkpt><trkpt lat="43.9907876" lon="8.0117711"><ele>662.0</ele><time>2026-04-08T13:59:27.79Z</time></trkpt><trkpt lat="43.9907391" lon="8.0118347"><ele>662.0</ele><time>2026-04-08T13:59:34.79Z</time></trkpt><trkpt lat="43.9907019" lon="8.0119124"><ele>662.0</ele><time>2026-04-08T13:59:41.79Z</time></trkpt><trkpt lat="43.990664" lon="8.0119874"><ele>660.1428571428571</ele><time>2026-04-08T13:59:47.79Z</time></trkpt><trkpt lat="43.9906282" lon="8.0120715"><ele>658.2857142857142</ele><time>2026-04-08T13:59:53.789Z</time></trkpt><trkpt lat="43.9905867" lon="8.0121549"><ele>656.4285714285713</ele><time>2026-04-08T14:00:00.79Z</time></trkpt><trkpt lat="43.9905385" lon="8.0122322"><ele>654.5714285714286</ele><time>2026-04-08T14:00:07.79Z</time></trkpt><trkpt lat="43.9904914" lon="8.0123009"><ele>652.7142857142857</ele><time>2026-04-08T14:00:14.79Z</time></trkpt><trkpt lat="43.9904463" lon="8.0123733"><ele>650.8571428571428</ele><time>2026-04-08T14:00:21.79Z</time></trkpt><trkpt lat="43.9904072" lon="8.0124515"><ele>649.0</ele><time>2026-04-08T14:00:28.708Z</time></trkpt><trkpt lat="43.9903608" lon="8.0125208"><ele>645.8571428571428</ele><time>2026-04-08T14:00:35.79Z</time></trkpt><trkpt lat="43.9903189" lon="8.0125943"><ele>642.7142857142857</ele><time>2026-04-08T14:00:42.792Z</time></trkpt><trkpt lat="43.9902721" lon="8.0126616"><ele>639.5714285714286</ele><time>2026-04-08T14:00:51.789Z</time></trkpt><trkpt lat="43.9902352" lon="8.0127349"><ele>636.4285714285713</ele><time>2026-04-08T14:00:59.791Z</time></trkpt><trkpt lat="43.990195" lon="8.0128157"><ele>633.2857142857142</ele><time>2026-04-08T14:01:07.79Z</time></trkpt><trkpt lat="43.9901564" lon="8.012893"><ele>630.1428571428571</ele><time>2026-04-08T14:01:15.75Z</time></trkpt><trkpt lat="43.9900997" lon="8.012952"><ele>627.0</ele><time>2026-04-08T14:01:23.791Z</time></trkpt><trkpt lat="43.9900461" lon="8.0130087"><ele>627.5714285714286</ele><time>2026-04-08T14:01:33.791Z</time></trkpt><trkpt lat="43.9899913" lon="8.0130669"><ele>628.1428571428571</ele><time>2026-04-08T14:01:41.819Z</time></trkpt><trkpt lat="43.9899402" lon="8.0131234"><ele>628.7142857142858</ele><time>2026-04-08T14:01:50.79Z</time></trkpt><trkpt lat="43.9898885" lon="8.0131849"><ele>629.2857142857142</ele><time>2026-04-08T14:01:58.79Z</time></trkpt><trkpt lat="43.9898294" lon="8.0132338"><ele>629.8571428571428</ele><time>2026-04-08T14:02:05.791Z</time></trkpt><trkpt lat="43.9897654" lon="8.0132777"><ele>630.4285714285714</ele><time>2026-04-08T14:02:13.791Z</time></trkpt><trkpt lat="43.9897131" lon="8.0133359"><ele>631.0</ele><time>2026-04-08T14:02:21.789Z</time></trkpt><trkpt lat="43.989664" lon="8.0134008"><ele>631.0</ele><time>2026-04-08T14:02:29.789Z</time></trkpt><trkpt lat="43.9896154" lon="8.0134663"><ele>631.0</ele><time>2026-04-08T14:02:37.789Z</time></trkpt><trkpt lat="43.989574" lon="8.0135411"><ele>631.0</ele><time>2026-04-08T14:02:46.789Z</time></trkpt><trkpt lat="43.9895488" lon="8.013624"><ele>631.0</ele><time>2026-04-08T14:02:55.79Z</time></trkpt><trkpt lat="43.9895298" lon="8.0137088"><ele>631.0</ele><time>2026-04-08T14:03:05.789Z</time></trkpt><trkpt lat="43.9895109" lon="8.0137962"><ele>631.0</ele><time>2026-04-08T14:03:13.791Z</time></trkpt><trkpt lat="43.9894831" lon="8.0138772"><ele>631.0</ele><time>2026-04-08T14:03:22.789Z</time></trkpt><trkpt lat="43.9894493" lon="8.0139562"><ele>631.0</ele><time>2026-04-08T14:03:31.789Z</time></trkpt><trkpt lat="43.9894031" lon="8.0140342"><ele>631.0</ele><time>2026-04-08T14:03:38.79Z</time></trkpt><trkpt lat="43.9893537" lon="8.0141047"><ele>631.0</ele><time>2026-04-08T14:03:45.835Z</time></trkpt><trkpt lat="43.9892917" lon="8.0141305"><ele>631.0</ele><time>2026-04-08T14:03:54.789Z</time></trkpt><trkpt lat="43.9892229" lon="8.0141479"><ele>631.0</ele><time>2026-04-08T14:04:01.889Z</time></trkpt><trkpt lat="43.9891532" lon="8.0141692"><ele>631.0</ele><time>2026-04-08T14:04:08.865Z</time></trkpt><trkpt lat="43.9890843" lon="8.0141953"><ele>631.0</ele><time>2026-04-08T14:04:17.853Z</time></trkpt><trkpt lat="43.9890357" lon="8.0142672"><ele>632.2857142857143</ele><time>2026-04-08T14:04:23.79Z</time></trkpt><trkpt lat="43.9889775" lon="8.014332"><ele>633.5714285714286</ele><time>2026-04-08T14:04:29.749Z</time></trkpt><trkpt lat="43.9889275" lon="8.0143949"><ele>634.8571428571429</ele><time>2026-04-08T14:04:36.79Z</time></trkpt><trkpt lat="43.9888665" lon="8.0144395"><ele>636.1428571428571</ele><time>2026-04-08T14:04:46.79Z</time></trkpt><trkpt lat="43.9888007" lon="8.01448"><ele>637.4285714285714</ele><time>2026-04-08T14:04:55.79Z</time></trkpt><trkpt lat="43.9887346" lon="8.0145286"><ele>638.7142857142857</ele><time>2026-04-08T14:05:02.79Z</time></trkpt><trkpt lat="43.9886763" lon="8.0145818"><ele>640.0</ele><time>2026-04-08T14:05:10.787Z</time></trkpt><trkpt lat="43.9886245" lon="8.0146328"><ele>640.0</ele><time>2026-04-08T14:05:18.79Z</time></trkpt><trkpt lat="43.9885756" lon="8.0146883"><ele>640.0</ele><time>2026-04-08T14:05:26.79Z</time></trkpt><trkpt lat="43.9885206" lon="8.0147323"><ele>640.0</ele><time>2026-04-08T14:05:35.79Z</time></trkpt><trkpt lat="43.9884618" lon="8.0147788"><ele>640.0</ele><time>2026-04-08T14:05:44.675Z</time></trkpt><trkpt lat="43.9884203" lon="8.0148498"><ele>640.0</ele><time>2026-04-08T14:05:55.869Z</time></trkpt><trkpt lat="43.9883839" lon="8.0149296"><ele>640.0</ele><time>2026-04-08T14:06:03.692Z</time></trkpt><trkpt lat="43.98835" lon="8.0150121"><ele>640.0</ele><time>2026-04-08T14:06:13.789Z</time></trkpt><trkpt lat="43.9883144" lon="8.0150878"><ele>641.5714285714286</ele><time>2026-04-08T14:06:25.861Z</time></trkpt><trkpt lat="43.988254" lon="8.0151284"><ele>643.1428571428571</ele><time>2026-04-08T14:06:38.791Z</time></trkpt><trkpt lat="43.9881911" lon="8.0151451"><ele>644.7142857142858</ele><time>2026-04-08T14:06:49.861Z</time></trkpt><trkpt lat="43.9881258" lon="8.0151134"><ele>646.2857142857142</ele><time>2026-04-08T14:07:01.848Z</time></trkpt><trkpt lat="43.9880616" lon="8.0150806"><ele>647.8571428571429</ele><time>2026-04-08T14:07:11.788Z</time></trkpt><trkpt lat="43.9880012" lon="8.0150433"><ele>649.4285714285714</ele><time>2026-04-08T14:07:22.802Z</time></trkpt><trkpt lat="43.9879404" lon="8.0149852"><ele>651.0</ele><time>2026-04-08T14:07:37.79Z</time></trkpt><trkpt lat="43.9878935" lon="8.0150634"><ele>651.0</ele><time>2026-04-08T14:08:10.789Z</time></trkpt><trkpt lat="43.987895" lon="8.0151592"><ele>651.0</ele><time>2026-04-08T14:08:16.789Z</time></trkpt><trkpt lat="43.9878843" lon="8.0152487"><ele>651.0</ele><time>2026-04-08T14:08:23.694Z</time></trkpt><trkpt lat="43.987885" lon="8.0153387"><ele>651.0</ele><time>2026-04-08T14:08:31.79Z</time></trkpt><trkpt lat="43.9878859" lon="8.0154296"><ele>651.0</ele><time>2026-04-08T14:08:39.789Z</time></trkpt><trkpt lat="43.9878727" lon="8.0155161"><ele>651.0</ele><time>2026-04-08T14:08:49.789Z</time></trkpt><trkpt lat="43.9878412" lon="8.0155972"><ele>651.0</ele><time>2026-04-08T14:08:59.789Z</time></trkpt><trkpt lat="43.9878191" lon="8.0156809"><ele>651.0</ele><time>2026-04-08T14:09:08.803Z</time></trkpt><trkpt lat="43.9877974" lon="8.0157694"><ele>651.0</ele><time>2026-04-08T14:09:19.789Z</time></trkpt><trkpt lat="43.9877932" lon="8.0158667"><ele>651.0</ele><time>2026-04-08T14:09:29.788Z</time></trkpt><trkpt lat="43.9877944" lon="8.0159656"><ele>651.0</ele><time>2026-04-08T14:09:37.79Z</time></trkpt><trkpt lat="43.9878057" lon="8.0160669"><ele>651.0</ele><time>2026-04-08T14:09:45.788Z</time></trkpt><trkpt lat="43.9878031" lon="8.016166"><ele>651.0</ele><time>2026-04-08T14:09:53.79Z</time></trkpt><trkpt lat="43.9878177" lon="8.0162619"><ele>651.0</ele><time>2026-04-08T14:10:01.789Z</time></trkpt><trkpt lat="43.9878303" lon="8.0163566"><ele>649.7142857142857</ele><time>2026-04-08T14:10:09.789Z</time></trkpt><trkpt lat="43.9878246" lon="8.0164457"><ele>648.4285714285714</ele><time>2026-04-08T14:10:18.789Z</time></trkpt><trkpt lat="43.9878294" lon="8.0165395"><ele>647.1428571428571</ele><time>2026-04-08T14:10:28.79Z</time></trkpt><trkpt lat="43.9878498" lon="8.0166337"><ele>645.8571428571429</ele><time>2026-04-08T14:10:38.789Z</time></trkpt><trkpt lat="43.9878915" lon="8.0167092"><ele>644.5714285714286</ele><time>2026-04-08T14:10:47.788Z</time></trkpt><trkpt lat="43.9879212" lon="8.0167925"><ele>643.2857142857142</ele><time>2026-04-08T14:10:56.79Z</time></trkpt><trkpt lat="43.9879491" lon="8.0168798"><ele>642.0</ele><time>2026-04-08T14:11:04.788Z</time></trkpt><trkpt lat="43.9879566" lon="8.0169737"><ele>641.9999999999999</ele><time>2026-04-08T14:11:12.79Z</time></trkpt><trkpt lat="43.9879484" lon="8.0170668"><ele>642.0</ele><time>2026-04-08T14:11:20.789Z</time></trkpt><trkpt lat="43.9879662" lon="8.0171572"><ele>642.0</ele><time>2026-04-08T14:11:30.789Z</time></trkpt><trkpt lat="43.9879842" lon="8.0172429"><ele>642.0</ele><time>2026-04-08T14:11:40.79Z</time></trkpt><trkpt lat="43.9879809" lon="8.0173375"><ele>642.0</ele><time>2026-04-08T14:11:51.79Z</time></trkpt><trkpt lat="43.9879241" lon="8.017393"><ele>641.9999999999999</ele><time>2026-04-08T14:11:59.788Z</time></trkpt><trkpt lat="43.987855" lon="8.0173846"><ele>642.0</ele><time>2026-04-08T14:12:07.771Z</time></trkpt><trkpt lat="43.9877912" lon="8.0173571"><ele>641.9999999999999</ele><time>2026-04-08T14:12:16.789Z</time></trkpt><trkpt lat="43.9877207" lon="8.0173521"><ele>642.0</ele><time>2026-04-08T14:12:25.789Z</time></trkpt><trkpt lat="43.9876568" lon="8.0173584"><ele>642.0</ele><time>2026-04-08T14:12:33.789Z</time></trkpt><trkpt lat="43.9875979" lon="8.0174064"><ele>642.0</ele><time>2026-04-08T14:12:41.79Z</time></trkpt><trkpt lat="43.9875557" lon="8.0174824"><ele>642.0</ele><time>2026-04-08T14:12:49.788Z</time></trkpt><trkpt lat="43.987517" lon="8.0175526"><ele>641.9999999999999</ele><time>2026-04-08T14:12:58.787Z</time></trkpt><trkpt lat="43.9874598" lon="8.0175986"><ele>642.0</ele><time>2026-04-08T14:13:08.787Z</time></trkpt><trkpt lat="43.987394" lon="8.0176178"><ele>648.4285714285713</ele><time>2026-04-08T14:13:17.787Z</time></trkpt><trkpt lat="43.9873243" lon="8.01764"><ele>654.8571428571429</ele><time>2026-04-08T14:13:26.796Z</time></trkpt><trkpt lat="43.9872607" lon="8.0176688"><ele>661.2857142857142</ele><time>2026-04-08T14:13:34.788Z</time></trkpt><trkpt lat="43.9871953" lon="8.0176781"><ele>667.7142857142857</ele><time>2026-04-08T14:13:42.789Z</time></trkpt><trkpt lat="43.9871497" lon="8.0177583"><ele>674.1428571428571</ele><time>2026-04-08T14:13:47.788Z</time></trkpt><trkpt lat="43.9870828" lon="8.0177683"><ele>680.5714285714286</ele><time>2026-04-08T14:13:58.788Z</time></trkpt><trkpt lat="43.9870102" lon="8.0177813"><ele>687.0</ele><time>2026-04-08T14:14:05.788Z</time></trkpt><trkpt lat="43.9869419" lon="8.0178214"><ele>687.0</ele><time>2026-04-08T14:14:13.789Z</time></trkpt><trkpt lat="43.9868866" lon="8.0178669"><ele>687.0</ele><time>2026-04-08T14:14:19.788Z</time></trkpt><trkpt lat="43.9868253" lon="8.0178897"><ele>687.0</ele><time>2026-04-08T14:14:25.788Z</time></trkpt><trkpt lat="43.9867685" lon="8.0179486"><ele>687.0</ele><time>2026-04-08T14:14:32.765Z</time></trkpt><trkpt lat="43.9867308" lon="8.0180224"><ele>687.0</ele><time>2026-04-08T14:14:39.788Z</time></trkpt><trkpt lat="43.9867019" lon="8.0181052"><ele>687.0</ele><time>2026-04-08T14:14:46.788Z</time></trkpt><trkpt lat="43.9866719" lon="8.018193"><ele>687.0</ele><time>2026-04-08T14:14:53.8Z</time></trkpt><trkpt lat="43.9866401" lon="8.0182745"><ele>687.4285714285714</ele><time>2026-04-08T14:15:01.788Z</time></trkpt><trkpt lat="43.9865945" lon="8.0183429"><ele>687.8571428571428</ele><time>2026-04-08T14:15:10.808Z</time></trkpt><trkpt lat="43.9865511" lon="8.0184162"><ele>688.2857142857142</ele><time>2026-04-08T14:15:18.788Z</time></trkpt><trkpt lat="43.9864992" lon="8.0184789"><ele>688.7142857142858</ele><time>2026-04-08T14:15:28.857Z</time></trkpt><trkpt lat="43.986457" lon="8.0185441"><ele>689.1428571428571</ele><time>2026-04-08T14:15:36.848Z</time></trkpt><trkpt lat="43.9864264" lon="8.018623"><ele>689.5714285714286</ele><time>2026-04-08T14:15:45.862Z</time></trkpt><trkpt lat="43.9864149" lon="8.0187188"><ele>690.0</ele><time>2026-04-08T14:15:58.789Z</time></trkpt><trkpt lat="43.9863783" lon="8.0187954"><ele>690.0</ele><time>2026-04-08T14:16:07.769Z</time></trkpt><trkpt lat="43.9863316" lon="8.0188658"><ele>690.0</ele><time>2026-04-08T14:16:15.812Z</time></trkpt><trkpt lat="43.9862711" lon="8.0188976"><ele>690.0</ele><time>2026-04-08T14:16:24.887Z</time></trkpt><trkpt lat="43.9862024" lon="8.0189161"><ele>690.0</ele><time>2026-04-08T14:16:33.856Z</time></trkpt><trkpt lat="43.986139" lon="8.0189154"><ele>690.0</ele><time>2026-04-08T14:16:41.848Z</time></trkpt><trkpt lat="43.9860753" lon="8.0189248"><ele>690.0</ele><time>2026-04-08T14:16:49.787Z</time></trkpt><trkpt lat="43.9860079" lon="8.0189383"><ele>690.0</ele><time>2026-04-08T14:16:56.787Z</time></trkpt><trkpt lat="43.9859462" lon="8.0189689"><ele>690.0</ele><time>2026-04-08T14:17:04.788Z</time></trkpt><trkpt lat="43.9858898" lon="8.0190316"><ele>690.0</ele><time>2026-04-08T14:17:13.84Z</time></trkpt><trkpt lat="43.9858388" lon="8.0190829"><ele>690.0</ele><time>2026-04-08T14:17:22.788Z</time></trkpt><trkpt lat="43.985778" lon="8.0191261"><ele>690.0</ele><time>2026-04-08T14:17:29.86Z</time></trkpt><trkpt lat="43.9857144" lon="8.019091"><ele>690.0</ele><time>2026-04-08T14:17:39.862Z</time></trkpt><trkpt lat="43.9856636" lon="8.0190315"><ele>690.0</ele><time>2026-04-08T14:17:48.787Z</time></trkpt><trkpt lat="43.9856097" lon="8.0189746"><ele>690.0</ele><time>2026-04-08T14:17:57.788Z</time></trkpt><trkpt lat="43.9855407" lon="8.018976"><ele>691.0</ele><time>2026-04-08T14:18:06.88Z</time></trkpt><trkpt lat="43.9854777" lon="8.0189935"><ele>692.0</ele><time>2026-04-08T14:18:16.846Z</time></trkpt><trkpt lat="43.9854196" lon="8.0190394"><ele>693.0</ele><time>2026-04-08T14:18:26.787Z</time></trkpt><trkpt lat="43.9853599" lon="8.0190863"><ele>694.0</ele><time>2026-04-08T14:18:35.833Z</time></trkpt><trkpt lat="43.9852954" lon="8.0191097"><ele>695.0</ele><time>2026-04-08T14:18:43.863Z</time></trkpt><trkpt lat="43.9852281" lon="8.0191527"><ele>696.0</ele><time>2026-04-08T14:18:51.884Z</time></trkpt><trkpt lat="43.9851775" lon="8.0192242"><ele>697.0</ele><time>2026-04-08T14:18:57.787Z</time></trkpt><trkpt lat="43.9851322" lon="8.0192873"><ele>697.0</ele><time>2026-04-08T14:19:03.811Z</time></trkpt><trkpt lat="43.9850825" lon="8.0193476"><ele>697.0</ele><time>2026-04-08T14:19:09.542Z</time></trkpt><trkpt lat="43.9850271" lon="8.0194007"><ele>697.0</ele><time>2026-04-08T14:19:15.869Z</time></trkpt><trkpt lat="43.984971" lon="8.0194439"><ele>697.0</ele><time>2026-04-08T14:19:22.786Z</time></trkpt><trkpt lat="43.9849131" lon="8.019494"><ele>697.0</ele><time>2026-04-08T14:19:29.787Z</time></trkpt><trkpt lat="43.984842" lon="8.0194857"><ele>697.0</ele><time>2026-04-08T14:19:40.787Z</time></trkpt><trkpt lat="43.9847776" lon="8.0195216"><ele>697.0</ele><time>2026-04-08T14:19:49.773Z</time></trkpt><trkpt lat="43.9847344" lon="8.0195961"><ele>698.8571428571429</ele><time>2026-04-08T14:19:57.787Z</time></trkpt><trkpt lat="43.984685" lon="8.0196615"><ele>700.7142857142857</ele><time>2026-04-08T14:20:05.694Z</time></trkpt><trkpt lat="43.9846263" lon="8.0197022"><ele>702.5714285714286</ele><time>2026-04-08T14:20:12.788Z</time></trkpt><trkpt lat="43.9845642" lon="8.0197216"><ele>704.4285714285714</ele><time>2026-04-08T14:20:19.788Z</time></trkpt><trkpt lat="43.9844971" lon="8.0197238"><ele>706.2857142857143</ele><time>2026-04-08T14:20:26.787Z</time></trkpt><trkpt lat="43.9844266" lon="8.0197582"><ele>708.1428571428571</ele><time>2026-04-08T14:20:33.787Z</time></trkpt><trkpt lat="43.9843701" lon="8.0198018"><ele>710.0</ele><time>2026-04-08T14:20:40.787Z</time></trkpt><trkpt lat="43.984317" lon="8.0198622"><ele>710.0</ele><time>2026-04-08T14:20:49.787Z</time></trkpt><trkpt lat="43.9842647" lon="8.019919"><ele>710.0</ele><time>2026-04-08T14:20:56.787Z</time></trkpt><trkpt lat="43.9842113" lon="8.0199716"><ele>710.0</ele><time>2026-04-08T14:21:05.876Z</time></trkpt><trkpt lat="43.9841546" lon="8.0200286"><ele>710.0</ele><time>2026-04-08T14:21:17.787Z</time></trkpt><trkpt lat="43.9841111" lon="8.0200954"><ele>710.0</ele><time>2026-04-08T14:21:27.858Z</time></trkpt><trkpt lat="43.9840972" lon="8.0201879"><ele>710.0</ele><time>2026-04-08T14:21:36.853Z</time></trkpt><trkpt lat="43.9840624" lon="8.0202674"><ele>710.0</ele><time>2026-04-08T14:21:46.859Z</time></trkpt><trkpt lat="43.9840484" lon="8.0203559"><ele>710.4285714285714</ele><time>2026-04-08T14:21:57.719Z</time></trkpt><trkpt lat="43.9840417" lon="8.0204474"><ele>710.8571428571429</ele><time>2026-04-08T14:22:08.79Z</time></trkpt><trkpt lat="43.9840538" lon="8.0205343"><ele>711.2857142857142</ele><time>2026-04-08T14:22:21.863Z</time></trkpt><trkpt lat="43.9840276" lon="8.0206172"><ele>711.7142857142858</ele><time>2026-04-08T14:22:31.787Z</time></trkpt><trkpt lat="43.9839659" lon="8.0206469"><ele>712.1428571428572</ele><time>2026-04-08T14:22:46.786Z</time></trkpt><trkpt lat="43.9839017" lon="8.020637"><ele>712.5714285714286</ele><time>2026-04-08T14:22:53.848Z</time></trkpt><trkpt lat="43.9838434" lon="8.0206012"><ele>713.0</ele><time>2026-04-08T14:23:02.85Z</time></trkpt><trkpt lat="43.983789" lon="8.0205567"><ele>713.0</ele><time>2026-04-08T14:23:14.752Z</time></trkpt><trkpt lat="43.983726" lon="8.0205359"><ele>713.0</ele><time>2026-04-08T14:23:25.787Z</time></trkpt><trkpt lat="43.9836617" lon="8.0205015"><ele>713.0</ele><time>2026-04-08T14:23:39.787Z</time></trkpt><trkpt lat="43.9835978" lon="8.0204934"><ele>713.0</ele><time>2026-04-08T14:23:48.788Z</time></trkpt><trkpt lat="43.9835341" lon="8.0205227"><ele>713.0</ele><time>2026-04-08T14:23:57.852Z</time></trkpt><trkpt lat="43.9834691" lon="8.0205597"><ele>713.0</ele><time>2026-04-08T14:24:06.856Z</time></trkpt><trkpt lat="43.9834066" lon="8.0205778"><ele>713.0</ele><time>2026-04-08T14:24:13.848Z</time></trkpt><trkpt lat="43.9833443" lon="8.0206158"><ele>715.0</ele><time>2026-04-08T14:24:21.786Z</time></trkpt><trkpt lat="43.9832856" lon="8.0206524"><ele>717.0</ele><time>2026-04-08T14:24:29.425Z</time></trkpt><trkpt lat="43.98323" lon="8.0207183"><ele>719.0</ele><time>2026-04-08T14:24:35.787Z</time></trkpt><trkpt lat="43.983184" lon="8.0208133"><ele>721.0</ele><time>2026-04-08T14:24:42.809Z</time></trkpt><trkpt lat="43.9831234" lon="8.0208526"><ele>723.0</ele><time>2026-04-08T14:24:50.71Z</time></trkpt><trkpt lat="43.9830627" lon="8.0208951"><ele>725.0</ele><time>2026-04-08T14:24:59.788Z</time></trkpt><trkpt lat="43.9830093" lon="8.0209513"><ele>727.0</ele><time>2026-04-08T14:25:08.787Z</time></trkpt><trkpt lat="43.9829675" lon="8.0210202"><ele>727.0</ele><time>2026-04-08T14:25:16.786Z</time></trkpt><trkpt lat="43.9829479" lon="8.0211034"><ele>727.0</ele><time>2026-04-08T14:25:25.727Z</time></trkpt><trkpt lat="43.9829469" lon="8.0211961"><ele>727.0</ele><time>2026-04-08T14:25:34.785Z</time></trkpt><trkpt lat="43.9829444" lon="8.0212945"><ele>727.0</ele><time>2026-04-08T14:25:43.786Z</time></trkpt><trkpt lat="43.9829374" lon="8.0213927"><ele>727.0</ele><time>2026-04-08T14:25:52.785Z</time></trkpt><trkpt lat="43.9829284" lon="8.0214849"><ele>727.0</ele><time>2026-04-08T14:26:00.787Z</time></trkpt><trkpt lat="43.9829377" lon="8.0215786"><ele>727.0</ele><time>2026-04-08T14:26:08.701Z</time></trkpt><trkpt lat="43.9829388" lon="8.0216765"><ele>725.1428571428571</ele><time>2026-04-08T14:26:16.785Z</time></trkpt><trkpt lat="43.9829318" lon="8.0217681"><ele>723.2857142857143</ele><time>2026-04-08T14:26:23.785Z</time></trkpt><trkpt lat="43.9829087" lon="8.0218517"><ele>721.4285714285714</ele><time>2026-04-08T14:26:30.799Z</time></trkpt><trkpt lat="43.9828816" lon="8.0219356"><ele>719.5714285714286</ele><time>2026-04-08T14:26:38.786Z</time></trkpt><trkpt lat="43.9828497" lon="8.0220139"><ele>717.7142857142858</ele><time>2026-04-08T14:26:45.867Z</time></trkpt><trkpt lat="43.9828104" lon="8.0220908"><ele>715.8571428571429</ele><time>2026-04-08T14:26:52.793Z</time></trkpt><trkpt lat="43.982764" lon="8.0221617"><ele>714.0</ele><time>2026-04-08T14:26:59.792Z</time></trkpt><trkpt lat="43.9827244" lon="8.0222428"><ele>714.0</ele><time>2026-04-08T14:27:06.787Z</time></trkpt><trkpt lat="43.9826895" lon="8.0223267"><ele>714.0</ele><time>2026-04-08T14:27:15.822Z</time></trkpt><trkpt lat="43.9826611" lon="8.0224104"><ele>714.0</ele><time>2026-04-08T14:27:21.793Z</time></trkpt><trkpt lat="43.982636" lon="8.022499"><ele>714.0</ele><time>2026-04-08T14:27:30.786Z</time></trkpt><trkpt lat="43.9826202" lon="8.0225882"><ele>714.0</ele><time>2026-04-08T14:27:37.786Z</time></trkpt><trkpt lat="43.9826133" lon="8.0226836"><ele>714.0</ele><time>2026-04-08T14:28:03.786Z</time></trkpt><trkpt lat="43.9825862" lon="8.0227673"><ele>714.0</ele><time>2026-04-08T14:28:15.712Z</time></trkpt><trkpt lat="43.9825671" lon="8.022853"><ele>713.4285714285714</ele><time>2026-04-08T14:28:24.785Z</time></trkpt><trkpt lat="43.9825573" lon="8.0229419"><ele>712.8571428571429</ele><time>2026-04-08T14:28:32.87Z</time></trkpt><trkpt lat="43.9825476" lon="8.0230388"><ele>712.2857142857142</ele><time>2026-04-08T14:28:43.863Z</time></trkpt><trkpt lat="43.9825492" lon="8.02313"><ele>711.7142857142858</ele><time>2026-04-08T14:28:54.786Z</time></trkpt><trkpt lat="43.982554" lon="8.0232206"><ele>711.1428571428571</ele><time>2026-04-08T14:29:03.785Z</time></trkpt><trkpt lat="43.9825619" lon="8.0233101"><ele>710.5714285714286</ele><time>2026-04-08T14:29:15.85Z</time></trkpt><trkpt lat="43.9825603" lon="8.0234046"><ele>710.0</ele><time>2026-04-08T14:29:30.787Z</time></trkpt><trkpt lat="43.9825486" lon="8.0234924"><ele>710.0</ele><time>2026-04-08T14:29:40.786Z</time></trkpt><trkpt lat="43.9825417" lon="8.0235853"><ele>710.0</ele><time>2026-04-08T14:29:48.814Z</time></trkpt><trkpt lat="43.9825277" lon="8.023672"><ele>710.0</ele><time>2026-04-08T14:29:54.751Z</time></trkpt><trkpt lat="43.9824734" lon="8.0237266"><ele>710.0</ele><time>2026-04-08T14:30:03.786Z</time></trkpt><trkpt lat="43.9824076" lon="8.0237456"><ele>710.0</ele><time>2026-04-08T14:30:10.788Z</time></trkpt><trkpt lat="43.98235" lon="8.0237872"><ele>710.0</ele><time>2026-04-08T14:30:35.787Z</time></trkpt><trkpt lat="43.9823059" lon="8.0238594"><ele>710.0</ele><time>2026-04-08T14:30:52.786Z</time></trkpt><trkpt lat="43.9822809" lon="8.0239416"><ele>714.0</ele><time>2026-04-08T14:31:04.786Z</time></trkpt><trkpt lat="43.9822927" lon="8.0240405"><ele>718.0</ele><time>2026-04-08T14:31:19.787Z</time></trkpt><trkpt lat="43.9823088" lon="8.0241283"><ele>722.0</ele><time>2026-04-08T14:31:26.786Z</time></trkpt><trkpt lat="43.9823403" lon="8.0242191"><ele>726.0</ele><time>2026-04-08T14:31:34.786Z</time></trkpt><trkpt lat="43.9823572" lon="8.0243101"><ele>730.0</ele><time>2026-04-08T14:31:42.784Z</time></trkpt><trkpt lat="43.9823711" lon="8.0244074"><ele>734.0</ele><time>2026-04-08T14:31:50.785Z</time></trkpt><trkpt lat="43.9823743" lon="8.0245016"><ele>738.0</ele><time>2026-04-08T14:31:57.873Z</time></trkpt><trkpt lat="43.9823981" lon="8.0245858"><ele>739.0</ele><time>2026-04-08T14:32:06.823Z</time></trkpt><trkpt lat="43.9824473" lon="8.0246547"><ele>740.0</ele><time>2026-04-08T14:32:15.785Z</time></trkpt><trkpt lat="43.9825057" lon="8.0246884"><ele>741.0</ele><time>2026-04-08T14:32:20.863Z</time></trkpt><trkpt lat="43.9825662" lon="8.024723"><ele>742.0</ele><time>2026-04-08T14:32:26.852Z</time></trkpt><trkpt lat="43.9826117" lon="8.0247868"><ele>743.0</ele><time>2026-04-08T14:32:36.853Z</time></trkpt><trkpt lat="43.9825774" lon="8.0248652"><ele>744.0</ele><time>2026-04-08T14:33:02.785Z</time></trkpt><trkpt lat="43.9825693" lon="8.0249607"><ele>745.0</ele><time>2026-04-08T14:33:09.862Z</time></trkpt><trkpt lat="43.9825603" lon="8.0250499"><ele>747.0</ele><time>2026-04-08T14:33:20.786Z</time></trkpt><trkpt lat="43.9825665" lon="8.0251457"><ele>749.0</ele><time>2026-04-08T14:33:31.785Z</time></trkpt><trkpt lat="43.9825485" lon="8.0252316"><ele>751.0</ele><time>2026-04-08T14:33:39.775Z</time></trkpt><trkpt lat="43.9825048" lon="8.0253304"><ele>753.0</ele><time>2026-04-08T14:34:00.785Z</time></trkpt><trkpt lat="43.9824836" lon="8.025418"><ele>755.0</ele><time>2026-04-08T14:34:39.785Z</time></trkpt><trkpt lat="43.9824675" lon="8.0255092"><ele>757.0</ele><time>2026-04-08T14:34:50.785Z</time></trkpt><trkpt lat="43.9824518" lon="8.0256073"><ele>759.0</ele><time>2026-04-08T14:35:24.86Z</time></trkpt><trkpt lat="43.9824618" lon="8.0256986"><ele>759.0</ele><time>2026-04-08T14:35:35.784Z</time></trkpt><trkpt lat="43.9824556" lon="8.0257895"><ele>759.0</ele><time>2026-04-08T14:35:46.785Z</time></trkpt><trkpt lat="43.9824145" lon="8.025868"><ele>759.0</ele><time>2026-04-08T14:35:56.869Z</time></trkpt><trkpt lat="43.9823673" lon="8.0259312"><ele>759.0</ele><time>2026-04-08T14:36:09.784Z</time></trkpt><trkpt lat="43.9823577" lon="8.0260317"><ele>759.0</ele><time>2026-04-08T14:36:21.787Z</time></trkpt><trkpt lat="43.9823503" lon="8.0261216"><ele>759.0</ele><time>2026-04-08T14:36:33.785Z</time></trkpt><trkpt lat="43.9823536" lon="8.0262094"><ele>759.0</ele><time>2026-04-08T14:36:43.785Z</time></trkpt><trkpt lat="43.9823454" lon="8.0263001"><ele>760.8571428571429</ele><time>2026-04-08T14:36:52.786Z</time></trkpt><trkpt lat="43.9823308" lon="8.0263885"><ele>762.7142857142857</ele><time>2026-04-08T14:37:13.913Z</time></trkpt><trkpt lat="43.9823043" lon="8.0264786"><ele>764.5714285714287</ele><time>2026-04-08T14:37:23.786Z</time></trkpt><trkpt lat="43.9822894" lon="8.0265764"><ele>766.4285714285714</ele><time>2026-04-08T14:37:32.785Z</time></trkpt><trkpt lat="43.9822899" lon="8.0266644"><ele>768.2857142857143</ele><time>2026-04-08T14:37:41.659Z</time></trkpt><trkpt lat="43.9823059" lon="8.0267507"><ele>770.1428571428572</ele><time>2026-04-08T14:37:54.784Z</time></trkpt><trkpt lat="43.9823319" lon="8.0268401"><ele>772.0</ele><time>2026-04-08T14:38:04.799Z</time></trkpt><trkpt lat="43.9823753" lon="8.0269106"><ele>773.0000000000001</ele><time>2026-04-08T14:38:13.856Z</time></trkpt><trkpt lat="43.9824489" lon="8.0269213"><ele>774.0</ele><time>2026-04-08T14:38:38.784Z</time></trkpt><trkpt lat="43.9824584" lon="8.0270208"><ele>775.0</ele><time>2026-04-08T14:38:47.785Z</time></trkpt><trkpt lat="43.982509" lon="8.0270781"><ele>776.0</ele><time>2026-04-08T14:39:01.785Z</time></trkpt><trkpt lat="43.9825485" lon="8.0271556"><ele>777.0</ele><time>2026-04-08T14:39:11.783Z</time></trkpt><trkpt lat="43.9825964" lon="8.0272223"><ele>778.0000000000001</ele><time>2026-04-08T14:39:46.792Z</time></trkpt><trkpt lat="43.982652" lon="8.0272826"><ele>779.0</ele><time>2026-04-08T14:39:54.783Z</time></trkpt><trkpt lat="43.9827016" lon="8.0273509"><ele>777.2857142857143</ele><time>2026-04-08T14:40:03.706Z</time></trkpt><trkpt lat="43.9827448" lon="8.0274258"><ele>775.5714285714286</ele><time>2026-04-08T14:40:11.785Z</time></trkpt><trkpt lat="43.9827826" lon="8.0274971"><ele>773.8571428571429</ele><time>2026-04-08T14:40:19.785Z</time></trkpt><trkpt lat="43.9828217" lon="8.0275689"><ele>772.1428571428571</ele><time>2026-04-08T14:40:27.783Z</time></trkpt><trkpt lat="43.9828557" lon="8.0276427"><ele>770.4285714285714</ele><time>2026-04-08T14:40:35.807Z</time></trkpt><trkpt lat="43.98283" lon="8.0277287"><ele>768.7142857142858</ele><time>2026-04-08T14:40:47.784Z</time></trkpt><trkpt lat="43.9828858" lon="8.0277835"><ele>767.0</ele><time>2026-04-08T14:41:19.783Z</time></trkpt><trkpt lat="43.9829537" lon="8.0278001"><ele>767.0</ele><time>2026-04-08T14:41:30.788Z</time></trkpt><trkpt lat="43.9830378" lon="8.0278645"><ele>767.0</ele><time>2026-04-08T14:44:48.784Z</time></trkpt></trkseg></trk></gpx>